Time;durP1;ratioP1;P1;durP2;ratioP2;P2;SDS_P1;SDS_P2;PMS_P1;PMS_P2;Temp;Humidity;BMP_temperature;BMP_pressure;BME280_temperature;BME280_humidity;BME280_pressure;Samples;Min_cycle;Max_cycle;Signal;HPM_P1;HPM_P2
2022/06/18 00:01:35;;;;;;;;;;;20.30;70.70;;;;;;5074786;28;874;-71
2022/06/18 00:04:05;;;;;;;;;;;20.30;70.00;;;;;;5057211;28;932;-71
2022/06/18 00:06:31;;;;;;;;;;;20.30;70.00;;;;;;5057001;28;796;-71
2022/06/18 00:08:57;;;;;;;;;;;20.30;70.00;;;;;;5056872;28;1286;-70
2022/06/18 00:14:07;;;;;;;;;;;20.30;70.00;;;;;;5074869;28;1871;-70
2022/06/18 00:16:32;;;;;;;;;;;20.30;70.00;;;;;;5074774;28;835;-70
2022/06/18 00:18:58;;;;;;;;;;;20.30;70.00;;;;;;5074531;28;1343;-72
2022/06/18 00:21:23;;;;;;;;;;;20.30;70.00;;;;;;5056240;28;1065;-72
2022/06/18 00:23:49;;;;;;;;;;;20.30;70.00;;;;;;5061557;28;1146;-72
2022/06/18 00:26:15;;;;;;;;;;;20.30;70.00;;;;;;5093162;28;1110;-72
2022/06/18 00:28:40;;;;;;;;;;;20.30;70.00;;;;;;5074403;28;1318;-71
2022/06/18 00:31:05;;;;;;;;;;;20.30;70.00;;;;;;5074228;28;883;-72
2022/06/18 00:33:31;;;;;;;;;;;20.30;70.00;;;;;;5056378;28;1894;-71
2022/06/18 00:35:58;;;;;;;;;;;20.30;70.00;;;;;;5074033;28;934;-71
2022/06/18 00:38:28;;;;;;;;;;;20.30;70.10;;;;;;5056497;28;910;-71
2022/06/18 00:40:53;;;;;;;;;;;20.30;70.00;;;;;;5056171;28;873;-72
2022/06/18 00:43:20;;;;;;;;;;;20.30;70.00;;;;;;5074314;28;831;-70
2022/06/18 00:45:46;;;;;;;;;;;20.30;70.00;;;;;;5056258;28;965;-71
2022/06/18 00:48:14;;;;;;;;;;;20.30;70.00;;;;;;5074082;28;834;-71
2022/06/18 00:50:42;;;;;;;;;;;20.30;70.00;;;;;;5104581;22;2058;-75
2022/06/18 00:53:09;;;;;;;;;;;20.30;70.00;;;;;;5039884;28;1914;-77
2022/06/18 00:55:34;;;;;;;;;;;20.30;70.00;;;;;;5056521;28;1060;-76
2022/06/18 00:58:01;;;;;;;;;;;20.30;70.00;;;;;;5074324;28;1036;-74
2022/06/18 01:00:37;;;;;;;;;;;20.30;70.00;;;;;;5055534;28;1384;-75
2022/06/18 01:03:03;;;;;;;;;;;20.30;70.00;;;;;;5055583;28;1088;-75
2022/06/18 01:05:35;;;;;;;;;;;20.30;70.00;;;;;;5055817;28;807;-75
2022/06/18 01:08:02;;;;;;;;;;;20.30;70.00;;;;;;5055958;28;827;-75
2022/06/18 01:10:27;;;;;;;;;;;20.30;70.00;;;;;;5038659;28;1357;-75
2022/06/18 01:12:53;;;;;;;;;;;20.30;70.00;;;;;;5073678;28;883;-75
2022/06/18 01:15:20;;;;;;;;;;;20.30;70.00;;;;;;5039023;28;2015;-76
2022/06/18 01:17:47;;;;;;;;;;;20.30;70.00;;;;;;5055833;28;811;-76
2022/06/18 01:20:12;;;;;;;;;;;20.30;70.00;;;;;;5057160;28;1297;-76
2022/06/18 01:22:53;;;;;;;;;;;20.30;70.10;;;;;;5058818;28;1179;-75
2022/06/18 01:25:20;;;;;;;;;;;20.30;70.00;;;;;;5058408;28;1186;-74
2022/06/18 01:27:46;;;;;;;;;;;20.30;70.00;;;;;;5052638;28;1279;-74
2022/06/18 01:30:14;;;;;;;;;;;20.30;70.00;;;;;;5058152;28;1211;-75
2022/06/18 01:32:39;;;;;;;;;;;20.30;70.00;;;;;;5075579;28;832;-76
2022/06/18 01:35:05;;;;;;;;;;;20.30;70.00;;;;;;5093408;28;1977;-76
2022/06/18 01:37:30;;;;;;;;;;;20.30;70.00;;;;;;5058492;28;1132;-76
2022/06/18 01:39:56;;;;;;;;;;;20.30;70.00;;;;;;5093253;28;1205;-76
2022/06/18 01:42:23;;;;;;;;;;;20.30;70.00;;;;;;5075392;28;1104;-75
2022/06/18 01:44:59;;;;;;;;;;;20.30;70.00;;;;;;5075340;28;863;-76
2022/06/18 01:47:25;;;;;;;;;;;20.30;70.00;;;;;;5075279;28;887;-75
2022/06/18 01:49:53;;;;;;;;;;;20.30;70.00;;;;;;5074977;28;1311;-76
2022/06/18 01:52:20;;;;;;;;;;;20.30;70.00;;;;;;5075284;28;795;-76
2022/06/18 01:54:47;;;;;;;;;;;20.30;70.00;;;;;;5093178;28;1914;-76
2022/06/18 01:57:14;;;;;;;;;;;20.30;70.00;;;;;;5074981;28;863;-76
2022/06/18 01:59:41;;;;;;;;;;;20.30;70.00;;;;;;5092841;28;1205;-76
2022/06/18 02:02:07;;;;;;;;;;;20.30;70.00;;;;;;5074927;28;1050;-76
2022/06/18 02:04:32;;;;;;;;;;;20.30;70.00;;;;;;5093187;28;800;-74
2022/06/18 02:06:58;;;;;;;;;;;20.30;70.00;;;;;;5093285;28;1029;-76
2022/06/18 02:09:35;;;;;;;;;;;20.30;70.00;;;;;;5058525;28;1275;-75
2022/06/18 02:12:02;;;;;;;;;;;20.30;70.00;;;;;;5057984;28;1287;-75
2022/06/18 02:14:28;;;;;;;;;;;20.30;70.00;;;;;;5058496;28;1975;-74
2022/06/18 02:16:54;;;;;;;;;;;20.30;70.00;;;;;;5075040;28;993;-75
2022/06/18 02:19:19;;;;;;;;;;;20.30;70.00;;;;;;5063828;28;1268;-73
2022/06/18 02:21:46;;;;;;;;;;;20.30;70.00;;;;;;5054949;28;937;-76
2022/06/18 02:24:12;;;;;;;;;;;20.30;70.00;;;;;;5066887;28;1191;-75
2022/06/18 02:26:40;;;;;;;;;;;20.30;70.00;;;;;;5074219;28;1075;-76
2022/06/18 02:29:05;;;;;;;;;;;20.30;70.00;;;;;;5059367;28;827;-74
2022/06/18 02:31:32;;;;;;;;;;;20.30;70.00;;;;;;5072629;28;2197;-76
2022/06/18 02:34:04;;;;;;;;;;;20.30;70.00;;;;;;5059024;28;1973;-76
2022/06/18 02:36:36;;;;;;;;;;;20.30;70.00;;;;;;5078895;28;1001;-76
2022/06/18 02:39:04;;;;;;;;;;;20.30;70.00;;;;;;5096822;28;771;-76
2022/06/18 02:41:29;;;;;;;;;;;20.30;70.00;;;;;;5096591;28;1283;-76
2022/06/18 02:43:55;;;;;;;;;;;20.30;70.00;;;;;;5078634;28;936;-76
2022/06/18 02:46:20;;;;;;;;;;;20.30;70.10;;;;;;5096620;28;914;-74
2022/06/18 02:48:46;;;;;;;;;;;20.30;70.10;;;;;;5096648;28;678;-74
2022/06/18 02:51:12;;;;;;;;;;;20.30;70.00;;;;;;5077992;28;1384;-74
2022/06/18 02:53:37;;;;;;;;;;;20.30;70.00;;;;;;5061705;28;1914;-74
2022/06/18 02:56:03;;;;;;;;;;;20.30;70.00;;;;;;5078465;28;1049;-74
2022/06/18 02:58:47;;;;;;;;;;;20.30;70.00;;;;;;5096478;28;803;-74
2022/06/18 03:01:13;;;;;;;;;;;20.30;70.00;;;;;;5061196;28;1268;-74
2022/06/18 03:03:40;;;;;;;;;;;20.30;70.00;;;;;;5096342;28;835;-74
2022/06/18 03:06:06;;;;;;;;;;;20.30;70.00;;;;;;5061439;28;1176;-74
2022/06/18 03:08:31;;;;;;;;;;;20.30;70.00;;;;;;5078235;28;810;-74
2022/06/18 03:13:41;;;;;;;;;;;20.30;70.00;;;;;;5080792;28;1973;-74
2022/06/18 03:16:08;;;;;;;;;;;20.30;70.10;;;;;;5078156;28;874;-74
2022/06/18 03:18:34;;;;;;;;;;;20.30;70.00;;;;;;5072639;28;1336;-74
2022/06/18 03:20:59;;;;;;;;;;;20.30;70.00;;;;;;5057710;28;1276;-74
2022/06/18 03:23:25;;;;;;;;;;;20.30;70.00;;;;;;5059245;28;1212;-74
2022/06/18 03:25:50;;;;;;;;;;;20.30;70.00;;;;;;5061024;28;1316;-74
2022/06/18 03:28:16;;;;;;;;;;;20.30;70.00;;;;;;5077466;28;1209;-74
2022/06/18 03:30:41;;;;;;;;;;;20.30;70.00;;;;;;5040640;28;1292;-74
2022/06/18 03:33:07;;;;;;;;;;;20.30;70.10;;;;;;5057223;28;1976;-74
2022/06/18 03:35:33;;;;;;;;;;;20.30;70.10;;;;;;5040863;28;1173;-74
2022/06/18 03:37:58;;;;;;;;;;;20.30;70.00;;;;;;5057468;28;824;-74
2022/06/18 03:40:24;;;;;;;;;;;20.30;70.00;;;;;;5057258;28;1299;-74
2022/06/18 03:42:51;;;;;;;;;;;20.30;70.10;;;;;;5057248;28;1423;-74
2022/06/18 03:45:17;;;;;;;;;;;20.30;70.00;;;;;;5057647;28;827;-74
2022/06/18 03:47:42;;;;;;;;;;;20.30;70.10;;;;;;5057317;28;934;-74
2022/06/18 03:50:08;;;;;;;;;;;20.30;70.00;;;;;;5056870;28;1221;-74
2022/06/18 03:52:34;;;;;;;;;;;20.30;70.10;;;;;;5057202;28;1076;-74
2022/06/18 03:54:59;;;;;;;;;;;20.30;70.00;;;;;;5057378;28;1945;-74
2022/06/18 03:57:26;;;;;;;;;;;20.30;70.00;;;;;;5075083;28;834;-74
2022/06/18 03:59:52;;;;;;;;;;;20.30;70.10;;;;;;5057078;28;1234;-74
2022/06/18 04:02:17;;;;;;;;;;;20.30;70.10;;;;;;5056669;28;883;-74
2022/06/18 04:04:43;;;;;;;;;;;20.30;70.80;;;;;;5057118;28;899;-74
2022/06/18 04:07:11;;;;;;;;;;;20.30;70.10;;;;;;5057037;28;860;-74
2022/06/18 04:09:36;;;;;;;;;;;20.30;70.00;;;;;;5040244;28;1316;-74
2022/06/18 04:12:02;;;;;;;;;;;20.30;70.10;;;;;;5074536;28;839;-74
2022/06/18 04:14:27;;;;;;;;;;;20.30;70.10;;;;;;5056951;28;1905;-74
2022/06/18 04:16:53;;;;;;;;;;;20.30;70.00;;;;;;5056808;28;788;-74
2022/06/18 04:19:18;;;;;;;;;;;20.30;70.00;;;;;;5056645;28;1213;-74
2022/06/18 04:21:44;;;;;;;;;;;20.30;70.00;;;;;;5074365;28;934;-73
2022/06/18 04:24:09;;;;;;;;;;;20.30;70.10;;;;;;5064321;28;1225;-75
2022/06/18 04:26:35;;;;;;;;;;;20.30;70.00;;;;;;5072193;28;1185;-75
2022/06/18 04:29:01;;;;;;;;;;;20.30;70.00;;;;;;5074448;28;808;-75
2022/06/18 04:31:26;;;;;;;;;;;20.30;70.10;;;;;;5073795;28;1198;-74
2022/06/18 04:33:52;;;;;;;;;;;20.30;70.10;;;;;;5074304;28;1959;-75
2022/06/18 04:36:28;;;;;;;;;;;20.30;70.00;;;;;;5074748;28;830;-75
2022/06/18 04:38:54;;;;;;;;;;;20.30;70.10;;;;;;5074362;28;1080;-75
2022/06/18 04:41:19;;;;;;;;;;;20.30;70.00;;;;;;5056024;28;1252;-75
2022/06/18 04:43:44;;;;;;;;;;;20.30;70.00;;;;;;5074189;28;791;-75
2022/06/18 04:46:10;;;;;;;;;;;20.30;70.00;;;;;;5055625;28;784;-75
2022/06/18 04:48:36;;;;;;;;;;;20.30;70.00;;;;;;5074377;28;788;-74
2022/06/18 04:51:01;;;;;;;;;;;20.30;70.10;;;;;;5055689;28;1695;-75
2022/06/18 04:53:26;;;;;;;;;;;20.30;70.10;;;;;;5056108;28;1906;-75
2022/06/18 04:55:52;;;;;;;;;;;20.30;70.10;;;;;;5039444;28;1201;-75
2022/06/18 04:58:17;;;;;;;;;;;20.30;70.10;;;;;;5056103;28;1106;-75
2022/06/18 05:00:43;;;;;;;;;;;20.30;70.00;;;;;;5073672;28;1197;-74
2022/06/18 05:03:14;;;;;;;;;;;20.30;70.10;;;;;;5056299;28;702;-75
2022/06/18 05:05:39;;;;;;;;;;;20.30;70.00;;;;;;5055934;28;891;-75
2022/06/18 05:08:05;;;;;;;;;;;20.30;70.10;;;;;;5073637;28;934;-75
2022/06/18 05:10:30;;;;;;;;;;;20.30;70.00;;;;;;5073618;28;1268;-74
2022/06/18 05:12:56;;;;;;;;;;;20.30;70.10;;;;;;5073214;28;804;-75
2022/06/18 05:15:21;;;;;;;;;;;20.30;70.00;;;;;;5055696;28;1894;-75
2022/06/18 05:17:47;;;;;;;;;;;20.30;70.10;;;;;;5055478;28;1331;-74
2022/06/18 05:20:16;;;;;;;;;;;20.30;70.10;;;;;;5055235;28;1319;-75
2022/06/18 05:22:42;;;;;;;;;;;20.40;70.10;;;;;;5073426;28;836;-75
2022/06/18 05:25:08;;;;;;;;;;;20.30;70.10;;;;;;5089188;28;1103;-73
2022/06/18 05:27:34;;;;;;;;;;;20.30;70.10;;;;;;5080787;28;1110;-72
2022/06/18 05:30:00;;;;;;;;;;;20.30;70.00;;;;;;5072923;28;1204;-72
2022/06/18 05:32:25;;;;;;;;;;;20.30;70.00;;;;;;5055528;28;1049;-72
2022/06/18 05:34:51;;;;;;;;;;;20.30;70.00;;;;;;5055348;28;1931;-72
2022/06/18 05:37:20;;;;;;;;;;;20.30;70.00;;;;;;5073437;28;1052;-72
2022/06/18 05:39:45;;;;;;;;;;;20.30;70.10;;;;;;5055289;28;1181;-72
2022/06/18 05:42:11;;;;;;;;;;;20.30;70.10;;;;;;5054807;28;1292;-72
2022/06/18 05:44:36;;;;;;;;;;;20.30;70.10;;;;;;5055202;28;815;-72
2022/06/18 05:47:12;;;;;;;;;;;20.30;70.10;;;;;;5038469;28;1264;-72
2022/06/18 05:49:38;;;;;;;;;;;20.30;70.10;;;;;;5072960;28;1284;-73
2022/06/18 05:52:03;;;;;;;;;;;20.30;70.10;;;;;;5072815;28;887;-72
2022/06/18 05:54:29;;;;;;;;;;;20.30;70.10;;;;;;5038440;28;1922;-73
2022/06/18 05:56:54;;;;;;;;;;;20.30;70.10;;;;;;5072788;28;854;-73
2022/06/18 05:59:19;;;;;;;;;;;20.30;70.10;;;;;;5054812;28;1318;-72
2022/06/18 06:01:45;;;;;;;;;;;20.30;70.10;;;;;;5037909;28;1287;-72
2022/06/18 06:04:11;;;;;;;;;;;20.30;70.10;;;;;;5054992;28;808;-72
2022/06/18 06:06:36;;;;;;;;;;;20.30;70.10;;;;;;5072843;28;804;-72
2022/06/18 06:09:02;;;;;;;;;;;20.30;70.10;;;;;;5054943;28;795;-73
2022/06/18 06:11:30;;;;;;;;;;;20.30;70.10;;;;;;5072413;28;1275;-73
2022/06/18 06:13:56;;;;;;;;;;;20.30;70.10;;;;;;5054670;28;2045;-73
2022/06/18 06:16:21;;;;;;;;;;;20.30;70.10;;;;;;5055113;28;1006;-73
2022/06/18 06:18:47;;;;;;;;;;;20.30;70.10;;;;;;5054774;28;1297;-72
2022/06/18 06:21:13;;;;;;;;;;;20.30;70.80;;;;;;5054706;28;1364;-73
2022/06/18 06:23:38;;;;;;;;;;;20.30;70.10;;;;;;5041467;28;1330;-72
2022/06/18 06:26:05;;;;;;;;;;;20.30;70.10;;;;;;5074857;28;1104;-71
2022/06/18 06:28:30;;;;;;;;;;;20.40;70.10;;;;;;5058472;28;2210;-70
2022/06/18 06:30:56;;;;;;;;;;;20.30;70.10;;;;;;5066449;28;2013;-70
2022/06/18 06:33:21;;;;;;;;;;;20.30;70.10;;;;;;5069683;28;1969;-71
2022/06/18 06:35:47;;;;;;;;;;;20.30;70.10;;;;;;5084501;28;1947;-70
2022/06/18 06:38:12;;;;;;;;;;;20.30;70.10;;;;;;5070030;28;1292;-71
2022/06/18 06:40:38;;;;;;;;;;;20.30;70.10;;;;;;5085411;28;1275;-71
2022/06/18 06:43:04;;;;;;;;;;;20.30;70.10;;;;;;5056696;28;1144;-70
2022/06/18 06:45:30;;;;;;;;;;;20.30;70.10;;;;;;5056809;28;1289;-68
2022/06/18 06:47:56;;;;;;;;;;;20.30;70.10;;;;;;5091652;28;957;-70
2022/06/18 06:50:21;;;;;;;;;;;20.30;70.10;;;;;;5091160;28;1283;-69
2022/06/18 06:52:50;;;;;;;;;;;20.30;70.10;;;;;;5091831;28;796;-69
2022/06/18 06:57:43;;;;;;;;;;;20.30;70.30;;;;;;5066593;28;1962;-70
2022/06/18 07:00:09;;;;;;;;;;;20.30;70.10;;;;;;5068943;28;2224;-70
2022/06/18 07:02:35;;;;;;;;;;;20.30;70.10;;;;;;5063005;28;1925;-70
2022/06/18 07:05:00;;;;;;;;;;;20.30;70.10;;;;;;5067190;28;1588;-70
2022/06/18 07:07:26;;;;;;;;;;;20.40;70.20;;;;;;5044908;28;1904;-70
2022/06/18 07:09:52;;;;;;;;;;;20.30;70.90;;;;;;5047121;28;1255;-70
2022/06/18 07:12:17;;;;;;;;;;;20.30;70.10;;;;;;5051394;28;1168;-70
2022/06/18 07:14:43;;;;;;;;;;;20.30;70.10;;;;;;5050319;28;1911;-70
2022/06/18 07:17:13;;;;;;;;;;;20.40;70.20;;;;;;5046990;28;1356;-70
2022/06/18 07:19:39;;;;;;;;;;;20.30;70.10;;;;;;5046077;28;1341;-70
2022/06/18 07:22:04;;;;;;;;;;;20.40;70.20;;;;;;5054652;28;799;-70
2022/06/18 07:24:29;;;;;;;;;;;20.30;70.10;;;;;;5044844;28;1185;-70
2022/06/18 07:26:55;;;;;;;;;;;20.30;70.10;;;;;;5035062;28;1190;-70
2022/06/18 07:29:21;;;;;;;;;;;20.30;70.10;;;;;;5035078;28;934;-70
2022/06/18 07:31:46;;;;;;;;;;;20.40;70.20;;;;;;5034607;28;827;-70
2022/06/18 07:34:11;;;;;;;;;;;20.40;70.20;;;;;;5033971;28;1961;-70
2022/06/18 07:36:37;;;;;;;;;;;20.30;70.10;;;;;;5034948;28;1203;-70
2022/06/18 07:39:03;;;;;;;;;;;20.40;70.20;;;;;;5035061;28;855;-70
2022/06/18 07:41:33;;;;;;;;;;;20.40;70.20;;;;;;5033016;28;850;-70
2022/06/18 07:43:58;;;;;;;;;;;20.30;70.10;;;;;;5035102;28;827;-70
2022/06/18 07:46:25;;;;;;;;;;;20.30;70.10;;;;;;5035060;28;1282;-70
2022/06/18 07:48:50;;;;;;;;;;;20.40;70.20;;;;;;5033838;28;847;-70
2022/06/18 07:51:16;;;;;;;;;;;20.30;70.10;;;;;;5033993;28;875;-70
2022/06/18 07:53:42;;;;;;;;;;;20.30;70.10;;;;;;5033683;28;1959;-70
2022/06/18 07:56:08;;;;;;;;;;;20.30;70.10;;;;;;5034743;28;1213;-70
2022/06/18 07:58:33;;;;;;;;;;;20.30;70.10;;;;;;5033555;28;827;-70
2022/06/18 08:00:59;;;;;;;;;;;20.40;70.20;;;;;;5034523;28;951;-70
2022/06/18 08:03:24;;;;;;;;;;;20.40;70.20;;;;;;5034126;28;1013;-70
2022/06/18 08:05:50;;;;;;;;;;;20.30;70.10;;;;;;5034405;28;1296;-70
2022/06/18 08:08:16;;;;;;;;;;;20.40;70.20;;;;;;5033406;28;1037;-70
2022/06/18 08:10:42;;;;;;;;;;;20.40;70.20;;;;;;5032849;28;843;-70
2022/06/18 08:13:07;;;;;;;;;;;20.40;70.20;;;;;;5033420;28;831;-70
2022/06/18 08:15:33;;;;;;;;;;;20.30;70.10;;;;;;5034524;28;1914;-70
2022/06/18 08:17:58;;;;;;;;;;;20.30;70.10;;;;;;5033059;28;1158;-70
2022/06/18 08:20:24;;;;;;;;;;;20.40;70.20;;;;;;5051482;28;846;-70
2022/06/18 08:22:50;;;;;;;;;;;20.40;70.20;;;;;;5053188;28;973;-69
2022/06/18 08:25:16;;;;;;;;;;;20.40;70.10;;;;;;5036079;28;1201;-70
2022/06/18 08:27:42;;;;;;;;;;;20.30;70.10;;;;;;5047802;28;1161;-70
2022/06/18 08:30:07;;;;;;;;;;;20.30;70.10;;;;;;5052209;28;1016;-70
2022/06/18 08:32:33;;;;;;;;;;;20.30;70.10;;;;;;5054192;28;1013;-70
2022/06/18 08:34:58;;;;;;;;;;;20.40;70.20;;;;;;5052548;28;1910;-70
2022/06/18 08:37:24;;;;;;;;;;;20.30;70.10;;;;;;5053932;28;1286;-70
2022/06/18 08:39:49;;;;;;;;;;;20.40;70.10;;;;;;5053177;28;1067;-70
2022/06/18 08:42:15;;;;;;;;;;;20.30;70.10;;;;;;5053558;28;787;-70
2022/06/18 08:44:49;;;;;;;;;;;20.30;70.10;;;;;;5054085;28;834;-70
2022/06/18 08:47:18;;;;;;;;;;;20.30;70.10;;;;;;5053932;28;1219;-70
2022/06/18 08:49:46;;;;;;;;;;;20.30;70.10;;;;;;5053779;28;979;-70
2022/06/18 08:52:31;;;;;;;;;;;20.30;70.10;;;;;;5053830;28;814;-70
2022/06/18 08:55:00;;;;;;;;;;;20.40;70.10;;;;;;5036291;28;1902;-70
2022/06/18 08:57:29;;;;;;;;;;;20.40;70.20;;;;;;5053475;28;1293;-70
2022/06/18 09:00:03;;;;;;;;;;;20.40;70.10;;;;;;5051906;28;806;-70
2022/06/18 09:02:35;;;;;;;;;;;20.40;70.20;;;;;;5052423;28;972;-70
2022/06/18 09:05:07;;;;;;;;;;;20.40;70.20;;;;;;5052620;28;1091;-70
2022/06/18 09:07:41;;;;;;;;;;;20.40;70.20;;;;;;5053287;28;1338;-70
2022/06/18 09:10:32;;;;;;;;;;;20.40;70.20;;;;;;5053009;28;881;-70
2022/06/18 09:13:00;;;;;;;;;;;20.40;70.20;;;;;;5052175;28;1111;-70
2022/06/18 09:15:29;;;;;;;;;;;20.40;70.10;;;;;;5051902;28;1967;-70
2022/06/18 09:17:57;;;;;;;;;;;20.40;70.20;;;;;;5052632;28;890;-70
2022/06/18 09:20:36;;;;;;;;;;;20.30;70.10;;;;;;5032809;28;1276;-70
2022/06/18 09:23:07;;;;;;;;;;;20.40;70.20;;;;;;5031761;28;959;-70
2022/06/18 09:25:34;;;;;;;;;;;20.40;70.20;;;;;;5051020;28;1306;-70
2022/06/18 09:28:03;;;;;;;;;;;20.30;70.10;;;;;;5037539;28;1201;-70
2022/06/18 09:30:32;;;;;;;;;;;20.40;70.20;;;;;;5031546;28;835;-70
2022/06/18 09:32:59;;;;;;;;;;;20.40;70.20;;;;;;5033289;28;832;-70
2022/06/18 09:35:25;;;;;;;;;;;20.40;70.20;;;;;;5032005;28;1900;-70
2022/06/18 09:37:55;;;;;;;;;;;20.40;70.20;;;;;;5032778;28;969;-70
2022/06/18 09:40:32;;;;;;;;;;;20.40;70.10;;;;;;5015140;28;1239;-70
2022/06/18 09:43:02;;;;;;;;;;;20.40;70.20;;;;;;5031797;28;958;-70
2022/06/18 09:45:31;;;;;;;;;;;20.40;70.20;;;;;;5031845;28;1209;-70
2022/06/18 09:47:56;;;;;;;;;;;20.40;70.20;;;;;;5031456;28;1120;-70
2022/06/18 09:50:32;;;;;;;;;;;20.40;70.20;;;;;;5032308;28;764;-70
2022/06/18 09:53:02;;;;;;;;;;;20.40;70.20;;;;;;5031714;28;903;-70
2022/06/18 09:55:31;;;;;;;;;;;20.40;70.20;;;;;;5031512;28;1898;-70
2022/06/18 09:57:57;;;;;;;;;;;20.40;70.20;;;;;;5031819;28;1053;-70
2022/06/18 10:00:24;;;;;;;;;;;20.40;70.20;;;;;;5031981;28;1018;-70
2022/06/18 10:03:09;;;;;;;;;;;20.40;70.20;;;;;;5031605;28;843;-70
2022/06/18 10:08:21;;;;;;;;;;;20.40;70.20;;;;;;5033300;28;2278;-70
2022/06/18 10:10:53;;;;;;;;;;;20.40;70.90;;;;;;5048894;28;1129;-70
2022/06/18 10:13:24;;;;;;;;;;;20.40;70.20;;;;;;5042959;28;1906;-70
2022/06/18 10:15:50;;;;;;;;;;;20.40;70.20;;;;;;5051205;28;1161;-70
2022/06/18 10:18:16;;;;;;;;;;;20.40;70.20;;;;;;5048582;28;1209;-70
2022/06/18 10:20:46;;;;;;;;;;;20.40;70.20;;;;;;5032230;28;902;-70
2022/06/18 10:23:38;;;;;;;;;;;20.40;70.10;;;;;;5014835;28;1320;-70
2022/06/18 10:26:10;;;;;;;;;;;20.40;70.10;;;;;;5005444;28;1332;-70
2022/06/18 10:28:43;;;;;;;;;;;20.40;70.20;;;;;;5051127;28;869;-70
2022/06/18 10:31:12;;;;;;;;;;;20.40;70.20;;;;;;5051056;28;783;-70
2022/06/18 10:33:42;;;;;;;;;;;20.40;70.20;;;;;;5052349;28;1953;-70
2022/06/18 10:36:27;;;;;;;;;;;20.40;70.20;;;;;;5050999;28;1227;-70
2022/06/18 10:39:12;;;;;;;;;;;20.40;70.20;;;;;;5044374;28;1166;-70
2022/06/18 10:41:46;;;;;;;;;;;20.40;70.20;;;;;;5051945;28;965;-70
2022/06/18 10:44:15;;;;;;;;;;;20.40;70.20;;;;;;5054812;28;1040;-70
2022/06/18 10:46:40;;;;;;;;;;;20.40;70.20;;;;;;5056114;28;1291;-70
2022/06/18 10:49:06;;;;;;;;;;;20.40;70.20;;;;;;5054712;28;1079;-70
2022/06/18 10:52:01;;;;;;;;;;;20.40;70.20;;;;;;5054491;28;853;-70
2022/06/18 10:54:33;;;;;;;;;;;20.40;70.20;;;;;;5046723;28;1952;-70
2022/06/18 10:56:59;;;;;;;;;;;20.40;70.20;;;;;;5055627;28;1276;-70
2022/06/18 10:59:27;;;;;;;;;;;20.40;70.20;;;;;;5054820;28;811;-70
2022/06/18 11:01:53;;;;;;;;;;;20.40;70.20;;;;;;5054347;28;1542;-70
2022/06/18 11:04:20;;;;;;;;;;;20.40;70.20;;;;;;5055722;28;846;-70
2022/06/18 11:06:46;;;;;;;;;;;20.40;70.20;;;;;;5054514;28;1220;-70
2022/06/18 11:09:11;;;;;;;;;;;20.40;70.20;;;;;;5054503;28;831;-70
2022/06/18 11:11:38;;;;;;;;;;;20.40;70.20;;;;;;5053822;28;1328;-70
2022/06/18 11:14:07;;;;;;;;;;;20.40;70.20;;;;;;5055649;28;1902;-70
2022/06/18 11:16:39;;;;;;;;;;;20.40;70.10;;;;;;5054543;28;1251;-70
2022/06/18 11:19:13;;;;;;;;;;;20.40;70.20;;;;;;5044472;28;2236;-71
2022/06/18 11:21:39;;;;;;;;;;;20.40;70.20;;;;;;5047458;28;1257;-70
2022/06/18 11:24:05;;;;;;;;;;;20.40;70.20;;;;;;5045320;28;1127;-70
2022/06/18 11:26:30;;;;;;;;;;;20.40;70.10;;;;;;5035042;28;1289;-70
2022/06/18 11:28:57;;;;;;;;;;;20.40;70.20;;;;;;5034317;28;887;-71
2022/06/18 11:31:27;;;;;;;;;;;20.40;70.10;;;;;;5034881;28;867;-70
2022/06/18 11:33:59;;;;;;;;;;;20.40;70.10;;;;;;5034980;28;1956;-70
2022/06/18 11:36:32;;;;;;;;;;;20.40;70.20;;;;;;5033790;28;1385;-71
2022/06/18 11:38:57;;;;;;;;;;;20.40;70.20;;;;;;5033694;28;863;-71
2022/06/18 11:41:25;;;;;;;;;;;20.40;70.10;;;;;;5033655;28;788;-71
2022/06/18 11:44:17;;;;;;;;;;;20.40;70.10;;;;;;5034049;28;1069;-71
2022/06/18 11:46:53;;;;;;;;;;;20.40;70.20;;;;;;5031743;28;1185;-71
2022/06/18 11:49:23;;;;;;;;;;;20.40;70.20;;;;;;5033890;28;961;-71
2022/06/18 11:51:49;;;;;;;;;;;20.40;70.20;;;;;;5033081;28;729;-71
2022/06/18 11:54:29;;;;;;;;;;;20.40;70.20;;;;;;5034959;28;1960;-71
2022/06/18 11:56:59;;;;;;;;;;;20.40;70.20;;;;;;5033616;28;1333;-71
2022/06/18 11:59:41;;;;;;;;;;;20.40;70.20;;;;;;5033648;28;988;-71
2022/06/18 12:02:15;;;;;;;;;;;20.40;70.10;;;;;;5033250;28;812;-70
2022/06/18 12:04:43;;;;;;;;;;;20.40;70.20;;;;;;5033201;28;724;-71
2022/06/18 12:07:11;;;;;;;;;;;20.40;70.20;;;;;;5033354;28;1182;-71
2022/06/18 12:09:37;;;;;;;;;;;20.40;70.20;;;;;;5034561;28;818;-71
2022/06/18 12:12:17;;;;;;;;;;;20.40;70.20;;;;;;5034112;28;807;-71
2022/06/18 12:14:50;;;;;;;;;;;20.40;70.20;;;;;;5034355;28;1883;-71
2022/06/18 12:17:24;;;;;;;;;;;20.40;70.20;;;;;;5033542;28;1276;-70
2022/06/18 12:20:08;;;;;;;;;;;20.40;70.20;;;;;;5047944;28;1264;-70
2022/06/18 12:22:40;;;;;;;;;;;20.40;70.20;;;;;;5053063;28;1530;-69
2022/06/18 12:25:14;;;;;;;;;;;20.40;70.20;;;;;;5038795;28;1309;-67
2022/06/18 12:28:01;;;;;;;;;;;20.40;70.20;;;;;;5039714;28;1334;-71
2022/06/18 12:30:29;;;;;;;;;;;20.40;70.20;;;;;;5045441;28;1314;-70
2022/06/18 12:32:57;;;;;;;;;;;20.40;70.20;;;;;;5051846;28;993;-69
2022/06/18 12:35:26;;;;;;;;;;;20.40;70.20;;;;;;5051711;28;1910;-67
2022/06/18 12:37:57;;;;;;;;;;;20.40;70.20;;;;;;5053015;28;775;-67
2022/06/18 12:40:29;;;;;;;;;;;20.40;70.20;;;;;;5048938;28;2137;-66
2022/06/18 12:43:02;;;;;;;;;;;20.40;70.20;;;;;;5042550;28;1085;-67
2022/06/18 12:45:34;;;;;;;;;;;20.40;70.20;;;;;;5030930;28;2158;-68
2022/06/18 12:48:03;;;;;;;;;;;20.40;70.20;;;;;;5043393;28;1115;-69
2022/06/18 12:50:28;;;;;;;;;;;20.40;70.10;;;;;;5033662;28;822;-70
2022/06/18 12:53:03;;;;;;;;;;;20.40;70.20;;;;;;5032113;28;965;-69
2022/06/18 12:55:33;;;;;;;;;;;20.40;70.20;;;;;;5031052;28;1974;-69
2022/06/18 12:58:03;;;;;;;;;;;20.40;70.20;;;;;;5036323;28;1597;-69
2022/06/18 13:00:36;;;;;;;;;;;20.40;70.20;;;;;;5047207;28;1224;-69
2022/06/18 13:03:05;;;;;;;;;;;20.40;70.20;;;;;;5051416;28;1184;-72
2022/06/18 13:05:39;;;;;;;;;;;20.40;70.20;;;;;;5052015;28;1313;-71
2022/06/18 13:08:20;;;;;;;;;;;20.40;70.20;;;;;;5051508;28;866;-71
2022/06/18 13:10:46;;;;;;;;;;;20.40;70.20;;;;;;5050243;28;1367;-71
2022/06/18 13:13:14;;;;;;;;;;;20.50;70.20;;;;;;5052241;28;858;-72
2022/06/18 13:15:43;;;;;;;;;;;20.40;70.20;;;;;;5044640;28;1973;-72
2022/06/18 13:18:29;;;;;;;;;;;20.40;70.20;;;;;;5032743;28;1114;-69
2022/06/18 13:20:56;;;;;;;;;;;20.40;70.20;;;;;;5051045;28;1165;-70
2022/06/18 13:29:02;;;;;;;;;;;20.40;70.20;;;;;;5029537;28;2145;-70
2022/06/18 13:31:48;;;;;;;;;;;20.50;70.20;;;;;;5031468;28;2487;-70
2022/06/18 13:34:17;;;;;;;;;;;20.40;70.20;;;;;;5021785;28;1903;-71
2022/06/18 13:36:50;;;;;;;;;;;20.50;70.20;;;;;;5052192;28;1240;-71
2022/06/18 13:39:15;;;;;;;;;;;20.40;70.10;;;;;;5050247;28;874;-73
2022/06/18 13:41:48;;;;;;;;;;;20.50;70.20;;;;;;5051112;28;854;-73
2022/06/18 13:44:18;;;;;;;;;;;20.50;70.60;;;;;;5050809;28;1068;-71
2022/06/18 13:46:47;;;;;;;;;;;20.40;70.20;;;;;;5050803;28;1283;-71
2022/06/18 13:49:12;;;;;;;;;;;20.40;70.10;;;;;;5051957;28;811;-72
2022/06/18 13:51:38;;;;;;;;;;;20.40;70.20;;;;;;5047988;28;1280;-70
2022/06/18 13:54:05;;;;;;;;;;;20.40;70.20;;;;;;5031433;28;1957;-71
2022/06/18 13:56:30;;;;;;;;;;;20.50;70.20;;;;;;5028969;28;1447;-71
2022/06/18 13:58:59;;;;;;;;;;;20.40;70.20;;;;;;5018653;28;1743;-71
2022/06/18 14:01:25;;;;;;;;;;;20.40;70.20;;;;;;5049418;28;1196;-71
2022/06/18 14:04:01;;;;;;;;;;;20.40;70.20;;;;;;5050486;28;1319;-72
2022/06/18 14:06:27;;;;;;;;;;;20.50;70.20;;;;;;5049977;28;1243;-72
2022/06/18 14:08:56;;;;;;;;;;;20.40;70.20;;;;;;5050581;28;846;-71
2022/06/18 14:11:35;;;;;;;;;;;20.40;70.10;;;;;;5051092;28;819;-71
2022/06/18 14:14:01;;;;;;;;;;;20.50;70.20;;;;;;5049936;28;1910;-71
2022/06/18 14:16:33;;;;;;;;;;;20.40;70.10;;;;;;5039975;28;1271;-72
2022/06/18 14:19:08;;;;;;;;;;;20.40;70.10;;;;;;5042066;28;1189;-71
2022/06/18 14:21:37;;;;;;;;;;;20.50;70.20;;;;;;5053658;28;850;-71
2022/06/18 14:24:02;;;;;;;;;;;20.50;70.20;;;;;;5049181;28;1118;-71
2022/06/18 14:26:37;;;;;;;;;;;20.50;70.20;;;;;;5037395;28;1193;-71
2022/06/18 14:29:03;;;;;;;;;;;20.40;70.20;;;;;;5053958;28;1020;-71
2022/06/18 14:31:32;;;;;;;;;;;20.40;70.10;;;;;;5052103;28;854;-71
2022/06/18 14:34:02;;;;;;;;;;;20.40;70.20;;;;;;5076632;22;2051;-73
2022/06/18 14:36:38;;;;;;;;;;;20.50;70.20;;;;;;5073210;28;992;-73
2022/06/18 14:39:04;;;;;;;;;;;20.40;70.20;;;;;;5094724;28;873;-74
2022/06/18 14:41:39;;;;;;;;;;;20.40;70.10;;;;;;5095522;28;798;-74
2022/06/18 14:44:13;;;;;;;;;;;20.40;70.20;;;;;;5094835;28;1358;-74
2022/06/18 14:46:57;;;;;;;;;;;20.40;70.20;;;;;;5068599;28;870;-74
2022/06/18 14:49:29;;;;;;;;;;;20.40;70.20;;;;;;5074781;28;966;-74
2022/06/18 14:52:04;;;;;;;;;;;20.40;70.10;;;;;;5074284;28;795;-74
2022/06/18 14:54:39;;;;;;;;;;;20.40;70.20;;;;;;5056947;28;1906;-74
2022/06/18 14:57:07;;;;;;;;;;;20.40;70.20;;;;;;5083180;28;966;-74
2022/06/18 14:59:49;;;;;;;;;;;20.40;70.20;;;;;;5095106;28;982;-74